Time;durP1;ratioP1;P1;durP2;ratioP2;P2;SDS_P1;SDS_P2;PMS_P1;PMS_P2;Temp;Humidity;BMP_temperature;BMP_pressure;BME280_temperature;BME280_humidity;BME280_pressure;Samples;Min_cycle;Max_cycle;Signal;HPM_P1;HPM_P2
2024/04/04 00:02:23;;;;;;;8.40;4.30;;;;;;;;;;6180566;23;20163;-91
2024/04/04 00:05:29;;;;;;;6.10;3.80;;;;;;;;;;6179681;23;20176;-90
2024/04/04 00:08:35;;;;;;;4.63;3.28;;;;;;;;;;6180331;23;20172;-91
2024/04/04 00:15:11;;;;;;;5.90;2.72;;;;;;;;;;6198037;23;20500;-91
2024/04/04 00:18:15;;;;;;;6.20;3.17;;;;;;;;;;6178175;23;20159;-92
2024/04/04 00:21:21;;;;;;;12.48;3.28;;;;;;;;;;6179500;23;20167;-93
2024/04/04 00:24:25;;;;;;;5.75;3.25;;;;;;;;;;6179328;23;20172;-91
2024/04/04 00:27:30;;;;;;;3.92;2.83;;;;;;;;;;6178817;23;20188;-91
2024/04/04 00:30:36;;;;;;;4.18;3.00;;;;;;;;;;6179285;23;20179;-92
2024/04/04 00:33:40;;;;;;;4.47;2.90;;;;;;;;;;6179587;23;20168;-91
2024/04/04 00:36:46;;;;;;;7.72;3.63;;;;;;;;;;6179489;23;20163;-90
2024/04/04 00:39:51;;;;;;;6.45;3.83;;;;;;;;;;6180448;23;20679;-91
2024/04/04 00:42:59;;;;;;;4.68;3.10;;;;;;;;;;6179609;23;20184;-91
2024/04/04 00:46:07;;;;;;;5.97;3.10;;;;;;;;;;6178339;23;20151;-92
2024/04/04 00:49:11;;;;;;;5.15;2.85;;;;;;;;;;6178132;23;20171;-91
2024/04/04 00:52:16;;;;;;;5.18;3.20;;;;;;;;;;6195165;23;20223;-91
2024/04/04 00:55:21;;;;;;;4.80;3.13;;;;;;;;;;6195811;23;20195;-90
2024/04/04 00:58:26;;;;;;;6.07;3.40;;;;;;;;;;6179593;23;20175;-91
2024/04/04 01:01:33;;;;;;;5.57;3.40;;;;;;;;;;6180191;23;20171;-89
2024/04/04 01:04:38;;;;;;;5.75;3.50;;;;;;;;;;6195445;23;20252;-92
2024/04/04 01:07:44;;;;;;;6.95;3.70;;;;;;;;;;6178292;23;20179;-90
2024/04/04 01:10:50;;;;;;;4.38;3.08;;;;;;;;;;6177651;23;20195;-90
2024/04/04 01:13:54;;;;;;;5.65;3.20;;;;;;;;;;6178506;23;20168;-92
2024/04/04 01:17:01;;;;;;;5.07;2.90;;;;;;;;;;6178941;23;20164;-90
2024/04/04 01:20:05;;;;;;;5.32;3.38;;;;;;;;;;6178860;23;20188;-91
2024/04/04 01:23:10;;;;;;;4.03;2.83;;;;;;;;;;6177130;23;20280;-91
2024/04/04 01:26:16;;;;;;;7.57;3.15;;;;;;;;;;6177616;23;20174;-90
2024/04/04 01:29:21;;;;;;;4.53;3.13;;;;;;;;;;6177314;23;20172;-91
2024/04/04 01:32:25;;;;;;;6.13;3.60;;;;;;;;;;6178224;23;20164;-92
2024/04/04 01:35:31;;;;;;;5.63;3.03;;;;;;;;;;6178575;23;20282;-92
2024/04/04 01:38:35;;;;;;;4.28;2.72;;;;;;;;;;6177148;23;20492;-92
2024/04/04 01:41:46;;;;;;;5.28;3.22;;;;;;;;;;6175389;23;20154;-92
2024/04/04 01:44:50;;;;;;;4.57;3.17;;;;;;;;;;6177775;23;20183;-91
2024/04/04 01:47:54;;;;;;;8.05;3.67;;;;;;;;;;6177537;23;20272;-90
2024/04/04 01:51:00;;;;;;;7.82;4.40;;;;;;;;;;6178530;23;20222;-90
2024/04/04 01:54:05;;;;;;;8.35;4.57;;;;;;;;;;6194171;23;20292;-91
2024/04/04 01:57:11;;;;;;;10.25;4.82;;;;;;;;;;6175610;23;20159;-92
2024/04/04 02:00:16;;;;;;;8.05;4.50;;;;;;;;;;6194901;23;20152;-90
2024/04/04 02:03:20;;;;;;;8.30;4.22;;;;;;;;;;6178448;23;20190;-91
2024/04/04 02:06:29;;;;;;;11.60;6.10;;;;;;;;;;6178922;23;20215;-92
2024/04/04 02:09:33;;;;;;;8.40;4.63;;;;;;;;;;6177240;23;20215;-93
2024/04/04 02:12:41;;;;;;;8.43;4.45;;;;;;;;;;6179704;23;20219;-92
2024/04/04 02:15:47;;;;;;;7.93;4.13;;;;;;;;;;6179878;23;20239;-92
2024/04/04 02:18:52;;;;;;;8.85;3.97;;;;;;;;;;6180526;23;20167;-90
2024/04/04 02:21:56;;;;;;;6.50;3.40;;;;;;;;;;6180814;23;20172;-91
2024/04/04 02:25:02;;;;;;;5.40;3.20;;;;;;;;;;6180957;23;20308;-91
2024/04/04 02:28:09;;;;;;;7.03;3.20;;;;;;;;;;6196751;23;20223;-91
2024/04/04 02:31:15;;;;;;;5.82;3.72;;;;;;;;;;6179043;23;20207;-91
2024/04/04 02:34:18;;;;;;;5.47;3.60;;;;;;;;;;6196962;23;20180;-92
2024/04/04 02:37:24;;;;;;;6.70;4.05;;;;;;;;;;6180242;23;20218;-92
2024/04/04 02:40:28;;;;;;;7.32;4.13;;;;;;;;;;6180366;23;20200;-90
2024/04/04 02:43:35;;;;;;;5.22;3.70;;;;;;;;;;6179904;23;20707;-91
2024/04/04 02:46:40;;;;;;;7.03;4.18;;;;;;;;;;6179433;23;20181;-92
2024/04/04 02:49:44;;;;;;;5.95;4.18;;;;;;;;;;6180117;23;20171;-92
2024/04/04 02:52:50;;;;;;;7.32;3.90;;;;;;;;;;6196410;23;20620;-91
2024/04/04 02:55:55;;;;;;;5.55;3.22;;;;;;;;;;6198090;23;20180;-92
2024/04/04 02:59:02;;;;;;;7.18;3.22;;;;;;;;;;6197750;23;20164;-92
2024/04/04 03:02:07;;;;;;;7.47;3.60;;;;;;;;;;6180691;23;20152;-90
2024/04/04 03:05:11;;;;;;;7.03;3.70;;;;;;;;;;6179233;23;20172;-93
2024/04/04 03:08:17;;;;;;;5.97;3.45;;;;;;;;;;6198779;23;20168;-90
2024/04/04 03:11:22;;;;;;;7.15;3.55;;;;;;;;;;6178125;23;20167;-90
2024/04/04 03:14:27;;;;;;;9.48;3.72;;;;;;;;;;6196747;23;20241;-91
2024/04/04 03:17:33;;;;;;;8.32;3.97;;;;;;;;;;6178515;23;20176;-90
2024/04/04 03:20:37;;;;;;;5.45;3.83;;;;;;;;;;6179382;23;20172;-89
2024/04/04 03:23:42;;;;;;;7.47;4.47;;;;;;;;;;6196940;23;20184;-92
2024/04/04 03:26:47;;;;;;;8.40;4.60;;;;;;;;;;6198083;23;20299;-91
2024/04/04 03:29:53;;;;;;;13.85;5.43;;;;;;;;;;6181730;23;20221;-91
2024/04/04 03:32:57;;;;;;;8.60;4.93;;;;;;;;;;6181080;23;20176;-92
2024/04/04 03:36:03;;;;;;;8.57;4.35;;;;;;;;;;6180610;23;20526;-90
2024/04/04 03:39:09;;;;;;;8.23;4.45;;;;;;;;;;6179635;23;20171;-92
2024/04/04 03:42:14;;;;;;;8.27;3.85;;;;;;;;;;6197278;23;20171;-91
2024/04/04 03:45:21;;;;;;;13.30;6.35;;;;;;;;;;6180231;23;20500;-91
2024/04/04 03:48:25;;;;;;;14.63;5.43;;;;;;;;;;6181467;23;20470;-92
2024/04/04 03:51:31;;;;;;;10.07;4.90;;;;;;;;;;6196355;23;20168;-90
2024/04/04 03:54:36;;;;;;;10.05;4.38;;;;;;;;;;6198736;23;20180;-91
2024/04/04 03:57:43;;;;;;;9.93;4.32;;;;;;;;;;6179716;23;20492;-91
2024/04/04 04:00:49;;;;;;;7.90;4.47;;;;;;;;;;6197394;23;20241;-92
2024/04/04 04:03:53;;;;;;;8.52;3.40;;;;;;;;;;6178197;23;20187;-91
2024/04/04 04:06:58;;;;;;;5.57;3.20;;;;;;;;;;6177189;23;20171;-91
2024/04/04 04:10:06;;;;;;;7.18;3.70;;;;;;;;;;6177548;23;20168;-91
2024/04/04 04:13:13;;;;;;;5.97;3.35;;;;;;;;;;6196338;23;20226;-91
2024/04/04 04:16:18;;;;;;;5.15;3.47;;;;;;;;;;6196206;23;20275;-90
2024/04/04 04:19:23;;;;;;;5.57;3.40;;;;;;;;;;6178951;23;20168;-93
2024/04/04 04:22:28;;;;;;;6.35;3.30;;;;;;;;;;6179605;23;20172;-92
2024/04/04 04:25:33;;;;;;;8.63;3.22;;;;;;;;;;6178653;23;20200;-92
2024/04/04 04:28:37;;;;;;;8.40;3.88;;;;;;;;;;6197501;23;20184;-93
2024/04/04 04:31:44;;;;;;;7.75;3.65;;;;;;;;;;6181831;23;20203;-92
2024/04/04 04:34:48;;;;;;;9.45;3.47;;;;;;;;;;6180261;23;20191;-92
2024/04/04 04:37:54;;;;;;;10.60;3.80;;;;;;;;;;6197694;23;20190;-91
2024/04/04 04:41:03;;;;;;;9.27;4.47;;;;;;;;;;6182384;23;20282;-94
2024/04/04 04:44:09;;;;;;;7.90;3.72;;;;;;;;;;6183178;23;20262;-92
2024/04/04 04:47:15;;;;;;;7.07;3.50;;;;;;;;;;6182799;23;20188;-92
2024/04/04 04:50:20;;;;;;;6.20;3.40;;;;;;;;;;6181187;23;20168;-93
2024/04/04 04:53:24;;;;;;;6.40;2.97;;;;;;;;;;6181265;23;20159;-90
2024/04/04 04:56:29;;;;;;;8.35;3.30;;;;;;;;;;6179692;23;20514;-92
2024/04/04 04:59:33;;;;;;;5.47;3.10;;;;;;;;;;6199677;23;20619;-91
2024/04/04 05:02:47;;;;;;;7.10;3.30;;;;;;;;;;6183984;23;20171;-91
2024/04/04 05:05:53;;;;;;;5.07;2.85;;;;;;;;;;6182494;23;20176;-90
2024/04/04 05:08:58;;;;;;;5.30;2.80;;;;;;;;;;6181279;23;20164;-88
2024/04/04 05:12:03;;;;;;;7.57;3.58;;;;;;;;;;6196803;23;20271;-91
2024/04/04 05:15:08;;;;;;;4.38;2.92;;;;;;;;;;6180444;23;20195;-90
2024/04/04 05:18:15;;;;;;;5.82;3.25;;;;;;;;;;6198848;23;20176;-90
2024/04/04 05:21:20;;;;;;;10.07;3.50;;;;;;;;;;6183033;23;20650;-93
2024/04/04 05:24:24;;;;;;;6.43;3.33;;;;;;;;;;6182487;23;20167;-90
2024/04/04 05:27:30;;;;;;;3.60;2.42;;;;;;;;;;6183296;23;20288;-91
2024/04/04 05:30:36;;;;;;;5.90;3.20;;;;;;;;;;6181747;23;20231;-93
2024/04/04 05:33:42;;;;;;;3.47;2.47;;;;;;;;;;6188508;23;20164;-91
2024/04/04 05:36:47;;;;;;;3.25;2.55;;;;;;;;;;6181537;23;20235;-93
2024/04/04 07:08:12;;;;;;;4.60;2.40;;;;;;;;;;6179286;22;20429;-93
2024/04/04 07:11:18;;;;;;;5.13;2.28;;;;;;;;;;6211260;23;20203;-93
2024/04/04 07:14:23;;;;;;;7.57;2.83;;;;;;;;;;6206120;23;20223;-92
2024/04/04 07:17:30;;;;;;;6.50;2.30;;;;;;;;;;6203895;23;20175;-92
2024/04/04 07:20:35;;;;;;;5.93;2.25;;;;;;;;;;6209986;23;20619;-91
2024/04/04 07:23:41;;;;;;;8.05;2.08;;;;;;;;;;6209507;23;20248;-91
2024/04/04 07:26:50;;;;;;;6.68;2.40;;;;;;;;;;6209978;23;20258;-91
2024/04/04 07:29:56;;;;;;;3.85;2.03;;;;;;;;;;6211127;23;20278;-91
2024/04/04 07:33:00;;;;;;;7.20;2.20;;;;;;;;;;6211747;23;20171;-92
2024/04/04 07:36:05;;;;;;;5.60;2.50;;;;;;;;;;6214652;23;20394;-91
2024/04/04 07:39:13;;;;;;;14.38;6.40;;;;;;;;;;6215089;23;20184;-93
2024/04/04 07:42:28;;;;;;;4.43;2.50;;;;;;;;;;6213752;23;20309;-92
2024/04/04 07:45:43;;;;;;;9.63;2.97;;;;;;;;;;6216498;23;20167;-93
2024/04/04 07:48:48;;;;;;;7.20;2.33;;;;;;;;;;6214588;23;20159;-92
2024/04/04 07:51:53;;;;;;;12.77;4.38;;;;;;;;;;6212083;23;20223;-91
2024/04/04 07:54:58;;;;;;;5.70;1.90;;;;;;;;;;6211251;23;20222;-92
2024/04/04 07:58:04;;;;;;;5.45;1.70;;;;;;;;;;6212813;23;20218;-92
2024/04/04 08:01:11;;;;;;;3.35;1.58;;;;;;;;;;6213574;23;20163;-93
2024/04/04 08:04:15;;;;;;;7.93;2.50;;;;;;;;;;6211218;23;20167;-93
2024/04/04 08:07:21;;;;;;;5.53;1.90;;;;;;;;;;6212033;23;20159;-94
2024/04/04 08:10:27;;;;;;;4.90;2.03;;;;;;;;;;6212076;23;20166;-94
2024/04/04 08:13:33;;;;;;;7.22;2.20;;;;;;;;;;6209269;23;20171;-93
2024/04/04 08:16:37;;;;;;;5.35;2.17;;;;;;;;;;6212408;23;20183;-95
2024/04/04 08:19:42;;;;;;;2.97;1.80;;;;;;;;;;6208980;23;20210;-93
2024/04/04 08:22:49;;;;;;;10.88;3.33;;;;;;;;;;6209340;23;20220;-94
2024/04/04 08:25:55;;;;;;;4.65;2.20;;;;;;;;;;6209949;23;20234;-92
2024/04/04 08:28:59;;;;;;;8.68;2.15;;;;;;;;;;6209832;23;20166;-92
2024/04/04 08:32:05;;;;;;;2.53;1.50;;;;;;;;;;6209234;23;20171;-92
2024/04/04 08:35:09;;;;;;;4.20;1.65;;;;;;;;;;6211828;23;20186;-93
2024/04/04 08:38:16;;;;;;;8.27;2.97;;;;;;;;;;6214408;23;20159;-93
2024/04/04 08:41:23;;;;;;;6.63;1.42;;;;;;;;;;6212954;23;20183;-94
2024/04/04 08:44:30;;;;;;;4.28;1.73;;;;;;;;;;6211497;23;20171;-93
2024/04/04 08:47:36;;;;;;;7.65;1.70;;;;;;;;;;6215343;23;20170;-93
2024/04/04 08:59:31;;;;;;;7.35;2.60;;;;;;;;;;6200026;22;20216;-93
2024/04/04 09:02:39;;;;;;;4.32;1.25;;;;;;;;;;6215840;23;20179;-93
2024/04/04 09:05:43;;;;;;;3.78;1.30;;;;;;;;;;6215492;23;20175;-92
2024/04/04 09:08:51;;;;;;;3.78;1.25;;;;;;;;;;6196836;23;20162;-93
2024/04/04 09:11:56;;;;;;;7.43;1.10;;;;;;;;;;6212035;23;20578;-93
2024/04/04 09:15:01;;;;;;;3.35;1.10;;;;;;;;;;6210220;23;20282;-93
2024/04/04 09:18:08;;;;;;;3.13;1.40;;;;;;;;;;6211599;23;20171;-93
2024/04/04 09:21:12;;;;;;;2.88;1.40;;;;;;;;;;6210950;23;20315;-92
2024/04/04 09:24:19;;;;;;;4.07;0.90;;;;;;;;;;6214203;23;20174;-93
2024/04/04 09:27:23;;;;;;;3.58;1.20;;;;;;;;;;6213118;23;20618;-93
2024/04/04 09:30:32;;;;;;;5.28;1.10;;;;;;;;;;6213325;23;20163;-92
2024/04/04 09:33:36;;;;;;;6.07;1.17;;;;;;;;;;6216192;23;20239;-95
2024/04/04 09:36:43;;;;;;;5.40;1.10;;;;;;;;;;6219866;23;20177;-94
2024/04/04 09:39:48;;;;;;;2.65;1.30;;;;;;;;;;6217647;23;20155;-94
2024/04/04 09:42:54;;;;;;;4.95;0.90;;;;;;;;;;6218243;23;20162;-93
2024/04/04 09:46:01;;;;;;;2.38;0.90;;;;;;;;;;6219919;23;20174;-94
2024/04/04 09:49:06;;;;;;;4.60;0.90;;;;;;;;;;6217859;23;20182;-95
2024/04/04 09:52:11;;;;;;;5.13;1.40;;;;;;;;;;6219861;23;20190;-95
2024/04/04 09:55:21;;;;;;;1.92;0.90;;;;;;;;;;6223841;23;20167;-92
2024/04/04 09:58:26;;;;;;;7.18;1.58;;;;;;;;;;6211487;23;20662;-93
2024/04/04 10:01:37;;;;;;;3.00;0.82;;;;;;;;;;6213761;23;20161;-94
2024/04/04 10:04:42;;;;;;;5.10;1.13;;;;;;;;;;6213596;23;20241;-95
2024/04/04 10:07:47;;;;;;;3.17;0.80;;;;;;;;;;6213137;23;20195;-93
2024/04/04 10:10:52;;;;;;;3.08;1.00;;;;;;;;;;6213100;23;20298;-93
2024/04/04 10:14:01;;;;;;;7.18;1.25;;;;;;;;;;6212751;23;20218;-94
2024/04/04 10:17:08;;;;;;;5.15;0.85;;;;;;;;;;6212496;23;20206;-93
2024/04/04 10:20:12;;;;;;;6.28;1.00;;;;;;;;;;6234536;23;20167;-95
2024/04/04 10:23:17;;;;;;;5.35;1.10;;;;;;;;;;6212079;23;20615;-94
2024/04/04 10:26:22;;;;;;;6.28;1.50;;;;;;;;;;6214785;23;20259;-93
2024/04/04 14:12:16;;;;;;;2.08;0.73;;;;;;;;;;6205075;23;20697;-95
2024/04/04 14:18:40;;;;;;;9.52;1.60;;;;;;;;;;6219836;23;20175;-95
2024/04/04 14:21:44;;;;;;;4.38;1.10;;;;;;;;;;6215717;23;20179;-93
2024/04/04 14:24:52;;;;;;;5.75;1.30;;;;;;;;;;6215578;23;20171;-93
2024/04/04 14:28:05;;;;;;;6.35;1.15;;;;;;;;;;6216665;23;20247;-94
2024/04/04 14:31:12;;;;;;;4.80;1.67;;;;;;;;;;6197621;23;20167;-94
2024/04/04 14:34:18;;;;;;;2.75;1.08;;;;;;;;;;6217216;23;20167;-94
2024/04/04 14:37:31;;;;;;;4.30;1.02;;;;;;;;;;6217467;23;20171;-94
2024/04/04 14:40:50;;;;;;;7.65;1.05;;;;;;;;;;6218106;23;20175;-94
2024/04/04 14:44:03;;;;;;;2.58;1.05;;;;;;;;;;6216852;23;20224;-93
2024/04/04 14:47:12;;;;;;;5.70;1.20;;;;;;;;;;6215394;23;20235;-92
2024/04/04 14:50:16;;;;;;;3.03;1.08;;;;;;;;;;6217658;23;20238;-94
2024/04/04 14:53:24;;;;;;;1.98;1.08;;;;;;;;;;6216169;23;20226;-95
2024/04/04 14:56:28;;;;;;;4.45;1.13;;;;;;;;;;6215842;23;20198;-94
2024/04/04 14:59:35;;;;;;;4.97;1.10;;;;;;;;;;6215897;23;20158;-94
2024/04/04 15:02:40;;;;;;;5.07;1.13;;;;;;;;;;6215044;23;20187;-94
2024/04/04 15:05:52;;;;;;;2.10;0.95;;;;;;;;;;6214872;23;20282;-95
2024/04/04 15:08:56;;;;;;;7.72;1.20;;;;;;;;;;6217193;23;20178;-95
2024/04/04 15:12:02;;;;;;;4.55;1.02;;;;;;;;;;6216226;23;20194;-94
2024/04/04 15:15:11;;;;;;;5.78;1.33;;;;;;;;;;6216332;23;20163;-91
2024/04/04 15:18:18;;;;;;;4.97;1.00;;;;;;;;;;6199016;23;20167;-94
2024/04/04 15:21:22;;;;;;;3.33;0.80;;;;;;;;;;6214894;23;20167;-95
2024/04/04 15:28:12;;;;;;;3.00;1.08;;;;;;;;;;6218604;23;20215;-94
2024/04/04 15:31:34;;;;;;;3.50;1.20;;;;;;;;;;6217487;23;20163;-94
2024/04/04 15:34:44;;;;;;;17.30;9.63;;;;;;;;;;6217048;23;20172;-94
2024/04/04 15:37:52;;;;;;;4.38;1.20;;;;;;;;;;6213666;23;20211;-94
2024/04/04 15:40:58;;;;;;;3.78;1.30;;;;;;;;;;6213495;23;20191;-92
2024/04/04 15:44:08;;;;;;;4.95;1.30;;;;;;;;;;6213309;23;20174;-95
2024/04/04 15:47:13;;;;;;;5.75;1.85;;;;;;;;;;6214982;23;20187;-96
2024/04/04 15:53:45;;;;;;;5.03;1.52;;;;;;;;;;6215436;23;20179;-94
2024/04/04 15:56:50;;;;;;;6.65;2.58;;;;;;;;;;6213142;23;20231;-94
2024/04/04 15:59:59;;;;;;;4.55;1.40;;;;;;;;;;6214177;23;20232;-94
2024/04/04 16:03:04;;;;;;;2.38;0.85;;;;;;;;;;6214615;23;20226;-94
2024/04/04 16:06:13;;;;;;;4.53;1.73;;;;;;;;;;6211436;23;20175;-96
2024/04/04 16:09:20;;;;;;;4.65;1.50;;;;;;;;;;6215616;23;20182;-94
2024/04/04 16:12:33;;;;;;;2.03;1.00;;;;;;;;;;6212633;23;20222;-93
2024/04/04 16:15:38;;;;;;;2.75;1.02;;;;;;;;;;6213029;23;20170;-91
2024/04/04 16:22:05;;;;;;;2.42;0.88;;;;;;;;;;6216709;23;20190;-93
2024/04/04 16:25:11;;;;;;;5.13;0.82;;;;;;;;;;6213894;23;20227;-92
2024/04/04 16:28:17;;;;;;;2.80;1.10;;;;;;;;;;6215265;23;20199;-92
2024/04/04 16:31:22;;;;;;;4.63;0.85;;;;;;;;;;6214739;23;20163;-92
2024/04/04 16:34:27;;;;;;;1.52;0.80;;;;;;;;;;6212497;23;20171;-92
2024/04/04 16:37:37;;;;;;;4.00;0.77;;;;;;;;;;6211394;23;20159;-92
2024/04/04 16:40:43;;;;;;;3.50;1.00;;;;;;;;;;6214100;23;20168;-92
2024/04/04 16:43:48;;;;;;;2.35;0.80;;;;;;;;;;6211574;23;20167;-93
2024/04/04 16:46:53;;;;;;;4.20;0.95;;;;;;;;;;6213829;23;20178;-92
2024/04/04 16:50:01;;;;;;;5.97;1.63;;;;;;;;;;6214522;23;20187;-92
2024/04/04 16:53:06;;;;;;;3.17;0.85;;;;;;;;;;6213122;23;20216;-92
2024/04/04 16:56:12;;;;;;;4.88;0.80;;;;;;;;;;6213804;23;20151;-93
2024/04/04 16:59:18;;;;;;;3.35;0.70;;;;;;;;;;6216647;23;20172;-92
2024/04/04 17:02:24;;;;;;;2.47;1.08;;;;;;;;;;6213890;23;20155;-93
2024/04/04 17:05:29;;;;;;;1.63;0.73;;;;;;;;;;6213998;23;20163;-92
2024/04/04 17:08:36;;;;;;;2.42;0.75;;;;;;;;;;6217609;23;20182;-92
2024/04/04 17:11:41;;;;;;;2.88;1.00;;;;;;;;;;6215367;23;20211;-91
2024/04/04 17:14:46;;;;;;;3.35;0.80;;;;;;;;;;6214823;23;20171;-94
2024/04/04 17:17:51;;;;;;;4.28;1.20;;;;;;;;;;6211982;23;20190;-94
2024/04/04 17:20:56;;;;;;;5.82;1.60;;;;;;;;;;6212272;23;20174;-93
2024/04/04 17:24:16;;;;;;;6.57;1.35;;;;;;;;;;6214659;23;20208;-91
2024/04/04 17:27:23;;;;;;;4.28;1.42;;;;;;;;;;6232338;23;20211;-93
2024/04/04 17:30:29;;;;;;;15.75;3.38;;;;;;;;;;6211856;23;20183;-93
2024/04/04 17:33:33;;;;;;;13.40;2.70;;;;;;;;;;6214073;23;20168;-93
2024/04/04 17:36:40;;;;;;;10.77;5.40;;;;;;;;;;6211996;23;20647;-94
2024/04/04 17:39:49;;;;;;;7.13;1.60;;;;;;;;;;6212931;23;20191;-93
2024/04/04 17:43:18;;;;;;;8.43;1.55;;;;;;;;;;6214887;23;20159;-90
2024/04/04 17:46:29;;;;;;;11.20;3.22;;;;;;;;;;6215000;23;20170;-92
2024/04/04 17:49:40;;;;;;;6.60;1.45;;;;;;;;;;6214564;23;20171;-92
2024/04/04 17:52:44;;;;;;;8.57;3.55;;;;;;;;;;6213100;23;20265;-92
2024/04/04 17:55:51;;;;;;;10.25;2.63;;;;;;;;;;6213724;23;20167;-92
2024/04/04 17:58:55;;;;;;;9.23;3.50;;;;;;;;;;6212993;23;20202;-93
2024/04/04 18:02:04;;;;;;;10.65;5.13;;;;;;;;;;6213095;23;20171;-91
2024/04/04 18:05:08;;;;;;;9.15;2.78;;;;;;;;;;6214951;23;20175;-91
2024/04/04 18:08:21;;;;;;;10.50;2.25;;;;;;;;;;6213510;23;20693;-92
2024/04/04 18:11:27;;;;;;;5.20;1.60;;;;;;;;;;6213842;23;20171;-92
2024/04/04 18:14:31;;;;;;;8.30;1.95;;;;;;;;;;6213694;23;20163;-93
2024/04/04 18:20:59;;;;;;;8.30;2.63;;;;;;;;;;6214030;23;20492;-92
2024/04/04 18:24:03;;;;;;;19.35;8.25;;;;;;;;;;6213932;23;20154;-92
2024/04/04 18:27:09;;;;;;;18.60;6.15;;;;;;;;;;6213338;23;20199;-93
2024/04/04 18:30:15;;;;;;;6.85;2.90;;;;;;;;;;6214355;23;20230;-93
2024/04/04 18:36:41;;;;;;;15.15;7.53;;;;;;;;;;6214233;23;20174;-93
2024/04/04 18:39:45;;;;;;;10.07;3.40;;;;;;;;;;6213302;23;20187;-92
2024/04/04 18:42:51;;;;;;;7.32;3.80;;;;;;;;;;6213553;23;20163;-92
2024/04/04 18:45:57;;;;;;;10.20;4.72;;;;;;;;;;6217444;23;20150;-92
2024/04/04 18:49:03;;;;;;;12.52;3.72;;;;;;;;;;6217856;23;20244;-92
2024/04/04 18:52:10;;;;;;;15.68;6.07;;;;;;;;;;6217051;23;20171;-91
2024/04/04 18:55:18;;;;;;;5.40;2.85;;;;;;;;;;6215074;23;20166;-90
2024/04/04 18:58:22;;;;;;;7.95;3.20;;;;;;;;;;6217394;23;20174;-91
2024/04/04 19:01:28;;;;;;;8.13;2.90;;;;;;;;;;6216961;23;20150;-93
2024/04/04 19:04:34;;;;;;;11.43;2.58;;;;;;;;;;6215036;23;20163;-92
2024/04/04 19:07:41;;;;;;;11.30;3.70;;;;;;;;;;6214869;23;20210;-92
2024/04/04 19:10:52;;;;;;;9.88;3.65;;;;;;;;;;6213802;23;20164;-90
2024/04/04 19:13:58;;;;;;;17.15;7.47;;;;;;;;;;6213662;23;20222;-92
2024/04/04 19:17:02;;;;;;;8.20;3.40;;;;;;;;;;6214253;23;20518;-92
2024/04/04 19:20:09;;;;;;;12.15;4.13;;;;;;;;;;6213649;23;20186;-92
2024/04/04 19:23:14;;;;;;;8.68;3.65;;;;;;;;;;6211704;23;20171;-92
2024/04/04 19:26:20;;;;;;;9.00;3.17;;;;;;;;;;6211678;23;20163;-92
2024/04/04 19:29:24;;;;;;;7.97;3.22;;;;;;;;;;6213686;23;20158;-92
2024/04/04 19:32:29;;;;;;;5.65;2.90;;;;;;;;;;6216281;23;20298;-93
2024/04/04 19:35:35;;;;;;;8.25;2.80;;;;;;;;;;6222556;23;20167;-93
2024/04/04 19:38:41;;;;;;;9.68;2.45;;;;;;;;;;6216189;23;20171;-92
2024/04/04 19:41:46;;;;;;;7.20;2.60;;;;;;;;;;6214674;23;20163;-93
2024/04/04 19:44:51;;;;;;;8.85;2.85;;;;;;;;;;6214144;23;20175;-92
2024/04/04 19:47:56;;;;;;;8.77;3.97;;;;;;;;;;6213418;23;20219;-92
2024/04/04 19:51:03;;;;;;;8.60;3.28;;;;;;;;;;6213978;23;20212;-91
2024/04/04 19:54:07;;;;;;;6.55;2.42;;;;;;;;;;6213833;23;20170;-92
2024/04/04 20:00:33;;;;;;;29.30;15.50;;;;;;;;;;6215857;23;20183;-92
2024/04/04 20:03:39;;;;;;;8.35;3.67;;;;;;;;;;6214024;23;20163;-93
2024/04/04 20:06:48;;;;;;;8.82;3.53;;;;;;;;;;6215388;23;20167;-92
2024/04/04 20:09:54;;;;;;;12.82;4.20;;;;;;;;;;6213106;23;20214;-92
2024/04/04 20:13:01;;;;;;;7.88;3.80;;;;;;;;;;6216407;23;20183;-91
2024/04/04 20:16:07;;;;;;;8.52;3.63;;;;;;;;;;6215085;23;20167;-92
2024/04/04 20:19:15;;;;;;;10.20;4.10;;;;;;;;;;6215737;23;20187;-93
2024/04/04 20:22:23;;;;;;;13.88;3.75;;;;;;;;;;6233955;23;20167;-92
2024/04/04 20:25:31;;;;;;;9.00;3.38;;;;;;;;;;6213615;23;20171;-93
2024/04/04 20:28:36;;;;;;;13.27;4.05;;;;;;;;;;6216600;23;20195;-90
2024/04/04 20:31:41;;;;;;;9.70;3.67;;;;;;;;;;6213314;23;20171;-91
2024/04/04 20:34:46;;;;;;;8.65;3.30;;;;;;;;;;6214685;23;20666;-92
2024/04/04 20:37:53;;;;;;;11.30;4.43;;;;;;;;;;6216129;23;20167;-91
2024/04/04 20:40:58;;;;;;;9.00;3.38;;;;;;;;;;6214656;23;20152;-93
2024/04/04 20:44:04;;;;;;;5.60;2.70;;;;;;;;;;6217050;23;20182;-92
2024/04/04 20:47:09;;;;;;;6.75;2.92;;;;;;;;;;6213990;23;20173;-92
2024/04/04 20:50:15;;;;;;;7.15;3.25;;;;;;;;;;6217398;23;20163;-91
2024/04/04 20:53:40;;;;;;;5.97;2.42;;;;;;;;;;6217310;23;20211;-93
2024/04/04 20:56:48;;;;;;;7.95;2.53;;;;;;;;;;6216317;23;20167;-93
2024/04/04 20:59:53;;;;;;;5.70;2.67;;;;;;;;;;6217580;23;20195;-94
2024/04/04 21:02:58;;;;;;;12.38;2.90;;;;;;;;;;6218556;23;20159;-93
2024/04/04 21:06:03;;;;;;;6.55;2.72;;;;;;;;;;6216291;23;20167;-93
2024/04/04 21:09:09;;;;;;;6.97;2.72;;;;;;;;;;6216422;23;20197;-93
2024/04/04 21:12:16;;;;;;;8.40;3.60;;;;;;;;;;6212703;23;20183;-94
2024/04/04 21:15:20;;;;;;;8.65;3.30;;;;;;;;;;6214953;23;20214;-94
2024/04/04 21:18:25;;;;;;;7.22;2.95;;;;;;;;;;6215250;23;20175;-93
2024/04/04 22:05:30;;;;;;;13.02;3.10;;;;;;;;;;6236447;23;20164;-92
2024/04/04 22:09:21;;;;;;;8.25;2.85;;;;;;;;;;5152493;27;20528;-92
2024/04/04 22:12:29;;;;;;;9.52;4.10;;;;;;;;;;5152048;27;20256;-94
2024/04/04 22:15:35;;;;;;;6.03;2.80;;;;;;;;;;5148343;27;20196;-93
2024/04/04 22:18:40;;;;;;;5.57;2.72;;;;;;;;;;5148780;27;20206;-93
2024/04/04 22:25:04;;;;;;;7.18;2.50;;;;;;;;;;5146376;27;20313;-93
2024/04/04 22:28:11;;;;;;;6.07;2.50;;;;;;;;;;5146512;27;20238;-94
2024/04/04 22:31:15;;;;;;;4.47;1.80;;;;;;;;;;5144456;27;20160;-94
2024/04/04 22:34:21;;;;;;;5.35;1.98;;;;;;;;;;5146116;28;20194;-94
2024/04/04 22:37:25;;;;;;;3.72;1.70;;;;;;;;;;5144723;27;20369;-92
2024/04/04 22:40:31;;;;;;;7.38;2.10;;;;;;;;;;5124761;28;20231;-94
2024/04/04 22:43:38;;;;;;;3.30;2.00;;;;;;;;;;5125366;28;20173;-93
2024/04/04 22:46:43;;;;;;;7.75;2.10;;;;;;;;;;5126564;28;20193;-93
2024/04/04 22:49:47;;;;;;;14.73;4.35;;;;;;;;;;5125854;28;20182;-92
2024/04/04 22:52:52;;;;;;;6.50;1.83;;;;;;;;;;5126664;28;20213;-93
2024/04/04 22:55:57;;;;;;;6.25;1.75;;;;;;;;;;5124265;28;20186;-93
2024/04/04 22:59:05;;;;;;;4.93;1.95;;;;;;;;;;5124600;28;20231;-94
2024/04/04 23:02:09;;;;;;;3.95;1.45;;;;;;;;;;5124784;28;20251;-91
2024/04/04 23:05:15;;;;;;;5.53;1.67;;;;;;;;;;5124564;28;20184;-92
2024/04/04 23:08:19;;;;;;;5.30;1.70;;;;;;;;;;5125259;28;20296;-92
2024/04/04 23:11:25;;;;;;;2.75;1.60;;;;;;;;;;5124484;28;20185;-93
2024/04/04 23:14:32;;;;;;;6.43;1.60;;;;;;;;;;5123870;28;20185;-92
2024/04/04 23:17:37;;;;;;;7.78;2.22;;;;;;;;;;5125357;28;20189;-93
2024/04/04 23:20:42;;;;;;;2.45;1.67;;;;;;;;;;5110231;28;20186;-93
2024/04/04 23:23:47;;;;;;;4.68;1.50;;;;;;;;;;5110539;28;20189;-94
2024/04/04 23:26:53;;;;;;;3.53;1.63;;;;;;;;;;5108227;28;20169;-94
2024/04/04 23:29:58;;;;;;;4.47;2.00;;;;;;;;;;5109254;28;20189;-93
2024/04/04 23:33:04;;;;;;;9.63;2.50;;;;;;;;;;5109395;28;20743;-91
2024/04/04 23:36:09;;;;;;;7.53;2.35;;;;;;;;;;5110639;28;20543;-91
2024/04/04 23:39:14;;;;;;;4.70;1.80;;;;;;;;;;5108269;28;20208;-93
2024/04/04 23:42:18;;;;;;;7.65;1.60;;;;;;;;;;5109490;28;20181;-93
2024/04/04 23:45:26;;;;;;;10.68;1.80;;;;;;;;;;5110106;28;20258;-91
2024/04/04 23:48:30;;;;;;;8.10;4.13;;;;;;;;;;5110749;28;20217;-93
2024/04/04 23:51:35;;;;;;;7.65;2.30;;;;;;;;;;5107898;28;20188;-92
2024/04/04 23:54:39;;;;;;;9.65;3.20;;;;;;;;;;5107449;28;20193;-94
2024/04/04 23:57:45;;;;;;;3.15;1.67;;;;;;;;;;5107609;28;20178;-93
